Caddoa, Colorado
Current Conditions -  °F | °C
As of 4:53 PM on Friday 24 Oct 2014 (Local Time) from KLAA Reporting Station
Clear Clear  
Wind Chill: 86°   Ceiling: Unl
Heat Index: 86°   Visibility: 10mi
Dew Point: 32°   Wind: 3mph
Humidity: 14%   Direction: 60°ENE
Pressure: 30.05"   Gusts: NA
Location:  38.0502°N, 102.919°W
Report Text: KLAA 242253Z AUTO 06003KT 10SM CLR 30/00 A3005 RMK AO2 SLP138 T03000000
Loading
Personal Weather Stations






























Interactive Weather Map
Tropical Storm Tracking
New forecast layout! Learn more

10-Day Weather Forecast

Advertisements
Track Severe Weather on mobile